createdAt,value
2019-05-03T00:03:27.451Z,85.94
2019-05-03T00:08:22.024Z,86.18
2019-05-03T00:13:16.618Z,86.34
2019-05-03T00:18:11.730Z,87.19
2019-05-03T00:23:06.713Z,87.71
2019-05-03T00:28:01.842Z,88.77
2019-05-03T00:32:56.712Z,89.25
2019-05-03T00:38:12.338Z,90.08
2019-05-03T00:43:06.872Z,89.70
2019-05-03T00:48:02.001Z,89.69
2019-05-03T00:52:56.629Z,90.32
2019-05-03T00:57:52.143Z,89.85
2019-05-03T01:02:46.880Z,89.89
2019-05-03T01:07:42.225Z,89.37
2019-05-03T01:12:37.056Z,89.50
2019-05-03T01:17:33.118Z,90.20
2019-05-03T01:22:27.695Z,90.08
2019-05-03T01:27:22.462Z,90.15
2019-05-03T01:32:17.114Z,91.06
2019-05-03T01:37:11.986Z,90.98
2019-05-03T01:42:06.701Z,91.30
2019-05-03T01:47:02.980Z,91.69
2019-05-03T01:52:12.786Z,90.71
2019-05-03T01:57:07.516Z,92.38
2019-05-03T02:02:19.598Z,93.41
2019-05-03T02:07:14.245Z,92.62
2019-05-03T02:12:08.923Z,93.63
2019-05-03T02:17:03.504Z,93.93
2019-05-03T02:21:58.095Z,94.35
2019-05-03T02:26:53.002Z,94.81
2019-05-03T02:31:47.846Z,95.21
2019-05-03T02:36:42.972Z,95.53
2019-05-03T02:41:37.674Z,94.36
2019-05-03T02:46:45.266Z,94.72
2019-05-03T02:51:38.924Z,95.02
2019-05-03T02:56:35.733Z,93.70
2019-05-03T03:01:30.745Z,94.18
2019-05-03T03:06:28.107Z,93.95
2019-05-03T03:11:26.201Z,93.90
2019-05-03T03:16:24.996Z,92.54
2019-05-03T03:21:26.031Z,91.87
2019-05-03T03:26:36.439Z,91.54
2019-05-03T03:31:48.160Z,91.73
2019-05-03T03:37:03.725Z,90.95
2019-05-03T03:41:55.574Z,89.75
2019-05-03T03:46:51.142Z,89.46
2019-05-03T03:51:51.944Z,90.34
2019-05-03T03:57:03.885Z,89.45
2019-05-03T04:01:55.059Z,89.71
2019-05-03T04:06:56.098Z,89.72
2019-05-03T04:11:49.747Z,90.60
2019-05-03T04:17:05.672Z,91.13
2019-05-03T04:21:59.886Z,90.37
2019-05-03T04:27:18.753Z,90.75
2019-05-03T04:32:05.957Z,90.68
2019-05-03T04:37:00.871Z,91.22
2019-05-03T04:41:55.991Z,90.62
2019-05-03T04:46:50.840Z,90.29
2019-05-03T04:51:46.484Z,90.92
2019-05-03T04:56:41.485Z,89.67
2019-05-03T05:01:36.068Z,89.18
2019-05-03T05:06:30.655Z,88.55
2019-05-03T05:11:26.347Z,88.76
2019-05-03T05:16:21.332Z,88.82
2019-05-03T05:21:17.609Z,87.82
2019-05-03T05:26:14.459Z,87.05
2019-05-03T05:31:09.264Z,87.52
2019-05-03T05:36:04.849Z,85.14
2019-05-03T05:40:59.593Z,87.16
2019-05-03T05:45:55.688Z,86.02
2019-05-03T05:50:51.195Z,86.52
2019-05-03T05:55:51.197Z,86.23
2019-05-03T06:00:47.412Z,86.55
2019-05-03T06:05:42.007Z,86.87
2019-05-03T06:10:56.031Z,87.02
2019-05-03T06:15:55.097Z,86.86
2019-05-03T06:21:07.250Z,85.04
2019-05-03T06:26:02.295Z,85.69
2019-05-03T06:31:02.592Z,84.43
2019-05-03T06:35:57.437Z,83.97
2019-05-03T06:40:52.109Z,84.30
2019-05-03T06:45:50.507Z,81.39
2019-05-03T06:50:45.274Z,80.99
2019-05-03T06:55:40.087Z,80.65
2019-05-03T07:00:40.003Z,80.38
2019-05-03T07:05:54.857Z,79.30
2019-05-03T07:10:57.013Z,74.03
2019-05-03T07:15:52.026Z,76.00
2019-05-03T07:20:48.331Z,72.88
2019-05-03T07:25:44.797Z,75.76
2019-05-03T07:30:39.262Z,76.04
2019-05-03T07:35:35.332Z,76.83
2019-05-03T07:40:30.971Z,78.42
2019-05-03T07:45:26.271Z,76.97
2019-05-03T07:50:21.631Z,77.38
2019-05-03T07:55:17.849Z,76.27
2019-05-03T08:00:15.044Z,77.63
2019-05-03T08:05:09.844Z,77.60
2019-05-03T08:10:07.114Z,78.63
2019-05-03T08:15:01.775Z,77.69
2019-05-03T08:19:56.435Z,78.46
2019-05-03T08:24:51.059Z,78.11
2019-05-03T08:29:45.642Z,75.97
2019-05-03T08:34:42.232Z,76.86
2019-05-03T08:39:36.948Z,80.10
2019-05-03T08:44:31.821Z,79.62
2019-05-03T08:49:26.469Z,81.11
2019-05-03T08:54:21.052Z,77.99
2019-05-03T08:59:26.775Z,77.71
2019-05-03T09:04:12.422Z,79.42
2019-05-03T09:09:10.554Z,78.63
2019-05-03T09:14:07.323Z,77.73
2019-05-03T09:19:01.897Z,76.03
2019-05-03T09:23:56.697Z,76.17
2019-05-03T09:28:51.346Z,76.78
2019-05-03T09:33:46.090Z,77.80
2019-05-03T09:38:41.022Z,75.67
2019-05-03T09:43:35.764Z,77.20
2019-05-03T09:48:30.434Z,75.23
2019-05-03T09:53:26.695Z,74.69
2019-05-03T09:58:21.291Z,75.29
2019-05-03T10:03:16.011Z,70.84
2019-05-03T10:08:10.587Z,71.98
2019-05-03T10:13:14.375Z,71.60
2019-05-03T10:18:01.617Z,72.67
2019-05-03T10:22:57.925Z,72.91
2019-05-03T10:27:52.505Z,71.73
2019-05-03T10:32:48.987Z,73.29
2019-05-03T10:37:45.348Z,71.95
2019-05-03T10:42:40.137Z,71.76
2019-05-03T10:47:35.041Z,73.61
2019-05-03T10:52:38.358Z,74.32
2019-05-03T10:57:35.675Z,74.85
2019-05-03T11:02:45.363Z,73.69
2019-05-03T11:07:40.144Z,75.41
2019-05-03T11:12:34.843Z,73.81
2019-05-03T11:17:31.536Z,73.46
2019-05-03T11:22:26.138Z,73.83
2019-05-03T11:27:22.482Z,73.68
2019-05-03T11:32:35.389Z,74.17
2019-05-03T11:37:41.170Z,73.32
2019-05-03T11:42:35.772Z,70.28
2019-05-03T11:47:30.373Z,71.21
2019-05-03T11:52:25.795Z,72.38
2019-05-03T11:57:28.242Z,73.02
2019-05-03T12:02:28.917Z,72.49
2019-05-03T12:07:39.085Z,73.09
2019-05-03T12:12:39.705Z,71.23
2019-05-03T12:17:36.373Z,71.91
2019-05-03T12:22:31.727Z,73.09
2019-05-03T12:27:26.748Z,74.63
2019-05-03T12:32:21.347Z,76.20
2019-05-03T12:37:15.956Z,78.21
2019-05-03T12:42:11.240Z,81.05
2019-05-03T12:47:06.237Z,81.74
2019-05-03T12:52:00.823Z,82.34
2019-05-03T12:56:56.096Z,82.16
2019-05-03T13:01:55.716Z,82.49
2019-05-03T13:07:08.496Z,82.75
2019-05-03T13:12:05.436Z,83.29
2019-05-03T13:16:59.793Z,83.09
2019-05-03T13:21:55.596Z,82.68
2019-05-03T13:26:50.529Z,81.97
2019-05-03T13:31:58.417Z,81.41
2019-05-03T13:36:41.431Z,79.67
2019-05-03T13:41:36.105Z,78.25
2019-05-03T13:46:30.865Z,77.72
2019-05-03T13:51:25.548Z,75.60
2019-05-03T13:56:20.156Z,73.32
2019-05-03T14:01:14.906Z,70.58
2019-05-03T14:06:09.674Z,68.25
2019-05-03T14:11:04.971Z,69.64
2019-05-03T14:16:05.942Z,68.39
2019-05-03T14:21:06.022Z,68.64
2019-05-03T14:26:01.520Z,69.43
2019-05-03T14:30:56.204Z,68.53
2019-05-03T14:35:50.815Z,64.72
2019-05-03T14:40:47.337Z,62.59
2019-05-03T14:45:42.087Z,60.84
2019-05-03T14:50:36.741Z,63.94
2019-05-03T14:55:45.856Z,61.88
2019-05-03T15:00:42.098Z,60.25
2019-05-03T15:05:36.770Z,57.83
2019-05-03T15:10:31.613Z,57.50
2019-05-03T15:15:29.060Z,59.38
2019-05-03T15:20:25.513Z,61.50
2019-05-03T15:25:20.343Z,60.42
2019-05-03T15:30:15.730Z,60.74
2019-05-03T15:35:10.596Z,59.73
2019-05-03T15:40:08.153Z,59.17
2019-05-03T15:45:14.698Z,59.12
2019-05-03T15:50:10.607Z,60.46
2019-05-03T15:55:09.074Z,59.00
2019-05-03T16:00:05.686Z,61.36
2019-05-03T16:05:00.319Z,59.30
2019-05-03T16:09:55.445Z,58.02
2019-05-03T16:14:52.634Z,58.70
2019-05-03T16:19:47.837Z,59.48
2019-05-03T16:24:42.442Z,60.12
2019-05-03T16:29:37.021Z,59.77
2019-05-03T16:34:31.640Z,62.67
2019-05-03T16:39:26.982Z,64.37
2019-05-03T16:44:22.012Z,65.37
2019-05-03T16:49:16.593Z,65.85
2019-05-03T16:54:11.194Z,67.23
2019-05-03T16:59:05.909Z,69.79
2019-05-03T17:04:02.185Z,70.99
2019-05-03T17:09:05.216Z,70.55
2019-05-03T17:13:59.870Z,71.09
2019-05-03T17:18:55.167Z,71.74
2019-05-03T17:23:50.052Z,71.54
2019-05-03T17:28:44.896Z,71.86
2019-05-03T17:33:50.719Z,71.77
2019-05-03T17:38:35.759Z,71.67
2019-05-03T17:43:32.009Z,72.54
2019-05-03T17:48:26.613Z,73.49
2019-05-03T17:53:22.845Z,74.61
2019-05-03T17:58:28.289Z,73.84
2019-05-03T18:03:25.781Z,72.49
2019-05-03T18:08:22.344Z,73.33
2019-05-03T18:13:16.958Z,74.35
2019-05-03T18:18:11.619Z,75.08
2019-05-03T18:23:06.284Z,75.12
2019-05-03T18:28:00.899Z,75.90
2019-05-03T18:32:55.505Z,76.44
2019-05-03T18:37:59.345Z,76.89
2019-05-03T18:42:55.579Z,76.96
2019-05-03T18:47:50.171Z,77.67
2019-05-03T18:52:44.976Z,77.89
2019-05-03T18:57:39.918Z,77.86
2019-05-03T19:02:34.519Z,78.42
2019-05-03T19:07:38.205Z,78.55
2019-05-03T19:12:32.545Z,78.61
2019-05-03T19:17:28.867Z,78.13
2019-05-03T19:22:24.956Z,80.85
2019-05-03T19:27:19.657Z,82.06
2019-05-03T19:32:14.976Z,81.71
2019-05-03T19:37:09.851Z,82.44
2019-05-03T19:42:04.433Z,84.78
2019-05-03T19:46:59.035Z,86.43
2019-05-03T19:51:54.536Z,86.63
2019-05-03T19:56:49.301Z,87.04
2019-05-03T20:01:51.388Z,87.59
2019-05-03T20:06:51.496Z,87.55
2019-05-03T20:11:46.136Z,87.85
2019-05-03T20:16:40.763Z,88.10
2019-05-03T20:21:36.231Z,88.13
2019-05-03T20:26:30.835Z,88.24
2019-05-03T20:31:25.431Z,88.23
2019-05-03T20:36:20.054Z,88.61
2019-05-03T20:41:14.959Z,87.63
2019-05-03T20:46:11.345Z,87.75
2019-05-03T20:51:05.925Z,90.05
2019-05-03T20:56:00.528Z,90.51
2019-05-03T21:00:55.208Z,89.46
2019-05-03T21:05:49.791Z,89.90
2019-05-03T21:10:44.940Z,91.09
2019-05-03T21:15:57.217Z,91.16
2019-05-03T21:20:58.988Z,91.45
2019-05-03T21:26:13.687Z,91.70
2019-05-03T21:31:08.298Z,92.59
2019-05-03T21:36:04.598Z,92.91
2019-05-03T21:40:59.399Z,93.23
2019-05-03T21:45:55.627Z,93.05
2019-05-03T21:50:50.213Z,93.32
2019-05-03T21:55:44.942Z,93.76
2019-05-03T22:00:46.956Z,93.86
2019-05-03T22:05:52.765Z,93.77
2019-05-03T22:10:37.859Z,93.62
2019-05-03T22:15:36.758Z,92.93
2019-05-03T22:20:34.921Z,92.33
2019-05-03T22:25:30.976Z,91.96
2019-05-03T22:30:26.865Z,92.12
2019-05-03T22:35:21.720Z,92.28
2019-05-03T22:40:16.302Z,92.09
2019-05-03T22:45:12.634Z,91.61
2019-05-03T22:50:07.367Z,91.50
2019-05-03T22:55:01.951Z,91.72
2019-05-03T22:59:56.610Z,91.09
2019-05-03T23:04:51.206Z,91.35
2019-05-03T23:09:45.784Z,91.77
2019-05-03T23:14:40.391Z,92.22
2019-05-03T23:19:36.625Z,92.87
2019-05-03T23:24:31.223Z,93.20
2019-05-03T23:29:25.800Z,93.00
2019-05-03T23:34:20.390Z,92.64
2019-05-03T23:39:14.998Z,91.96
2019-05-03T23:44:09.578Z,91.42
2019-05-03T23:49:04.223Z,90.06
2019-05-03T23:53:58.820Z,90.98
2019-05-03T23:58:55.031Z,92.15
